Orr, MN (55771)

11:00 AM CST on February 10, 2016 (GMT -0600)
Orr Regional | | Change Station
CLOSE
Current Station
Airport
Location: Orr,
Elevation: 1309 ft
Nearby Weather Stations

Elev 1309 ft 48.02 °N, 92.86 °W | Updated 7 minutes ago

Clear
Clear
-8 °F
Feels Like -8 °F
N
0
Wind Variable Wind from North

Today
High -- | Low -- °F
--% Chance of Precip.
Yesterday
High -- | Low -- °F
Precip. -- in
Pressure 30.09 in
Visibility 10.0 miles
Clouds Clear
Dew Point -15 °F
Humidity 71%
Rainfall 0.00 in
Snow Depth Not available.
7:26 AM 5:24 PM
Waxing Crescent, 6% visible
METAR KORB 101653Z AUTO 00000KT 10SM CLR M22/M26 A3009 RMK AO2
Pressure 30.09 in
Visibility 10.0 miles
Clouds Clear
Dew Point -15 °F
Humidity 71%
Rainfall 0.00 in
Snow Depth Not available.
7:26 AM 5:24 PM
Waxing Crescent, 6% visible
METAR KORB 101653Z AUTO 00000KT 10SM CLR M22/M26 A3009 RMK AO2

10-Day Weather Forecast

Almanac

Astronomy

Feb. 10, 2016 Rise Set
Actual Time
Civil Twilight
Nautical Twilight
Astronomical Twilight
Moon
Length of Visible Light
Length of Day
Tomorrow will be .
, % of the Moon is Illuminated

Today's Extremes

State Highs State Lows

Community

WunderPhotos

Upload Photos

1,891,891 photos uploaded!

WunderBlog® & News

Nearby

Air Quality

  Air Quality AQ Index Pollutant
Not available.

Snow Depth

Station Depth Elevation

Earthquake Activity

City Distance Mag. Time & Date
Minimum magnitude displayed is 2.5.

Coastal Water Temperatures

Place Temperature

Stations

Nearby Weather Stations

Station Location Temp. Windchill Dew Point Humidity Wind Precip. Elev Updated Type
                   

Watches & Warnings

There are currently no watches in effect.